To NAV CANADA Home Page Login to a new session Search on AWWS site Feedback and Comments Disclaimer Vers la page française équivalente Tips FAQ What's new on the site To the Forecasts and Observations / NOTAM section To "File a Flight Plan" website Publications and other links Update of the User's profile FIC Telephone Numbers My Weather Data Folder Route Weather Data Regional Weather Data Local Weather Data To the Forecasts and Observations / NOTAM section
Request Generated 05/31/2016 at 17:50:14 UTC . Weather information available at that time is displayed.

METAR/TAF

BURWASH/YT    (show WxCam)

METAR CYDB 311700Z 11010KT 30SM FEW050 FEW250 10/03 A3000 RMK CU1CI1
SLP183=
METAR CYDB 311600Z 10008KT 30SM FEW045 SCT250 08/02 A3002 RMK CU1CI2
SLP193=
METAR CYDB 311500Z 12004KT 070V230 30SM FEW045 FEW250 07/03 A3004 RMK
CF1CI2 CF TR SLP199=

TAF CYDB 311738Z 3118/0106 11010KT P6SM FEW050 FEW250
RMK NXT FCST BY 010000Z=
Your time UTC time
Weather data provided by Environment Canada and NAV CANADA